createdAt,value
2022-12-16T00:00:15.817Z,21.87
2022-12-16T00:06:19.635Z,20.10
2022-12-16T00:12:24.407Z,22.67
2022-12-16T00:18:28.224Z,21.60
2022-12-16T00:24:32.215Z,20.50
2022-12-16T00:30:37.236Z,22.93
2022-12-16T00:36:40.656Z,27.40
2022-12-16T00:42:44.035Z,19.63
2022-12-16T00:48:48.785Z,17.10
2022-12-16T00:54:52.432Z,18.27
2022-12-16T01:00:55.973Z,14.60
2022-12-16T01:07:00.853Z,16.73
2022-12-16T01:13:04.348Z,15.63
2022-12-16T01:19:07.689Z,14.57
2022-12-16T01:25:14.053Z,17.33
2022-12-16T01:31:18.500Z,14.17
2022-12-16T01:37:22.300Z,13.67
2022-12-16T01:43:28.776Z,14.43
2022-12-16T01:49:38.941Z,14.43
2022-12-16T01:55:44.768Z,15.03
2022-12-16T02:01:49.549Z,14.73
2022-12-16T02:07:56.857Z,12.60
2022-12-16T02:14:18.750Z,14.53
2022-12-16T02:20:39.993Z,9.93
2022-12-16T02:27:00.105Z,10.70
2022-12-16T02:33:11.059Z,9.93
2022-12-16T02:39:15.950Z,8.20
2022-12-16T02:45:20.470Z,9.50
2022-12-16T02:51:28.028Z,9.73
2022-12-16T02:57:43.634Z,6.33
2022-12-16T03:03:49.683Z,5.83
2022-12-16T03:09:55.267Z,5.63
2022-12-16T03:16:00.247Z,9.87
2022-12-16T03:22:04.788Z,8.13
2022-12-16T03:28:13.709Z,8.30
2022-12-16T03:34:19.546Z,6.13
2022-12-16T03:40:23.298Z,5.90
2022-12-16T03:46:28.605Z,6.33
2022-12-16T03:52:32.654Z,6.87
2022-12-16T03:58:36.271Z,8.65
2022-12-16T04:04:41.399Z,10.13
2022-12-16T04:11:02.247Z,6.53
2022-12-16T04:17:34.893Z,4.93
2022-12-16T04:24:02.129Z,5.93
2022-12-16T04:30:21.893Z,7.67
2022-12-16T04:36:42.820Z,5.27
2022-12-16T04:43:05.321Z,6.27
2022-12-16T04:49:26.552Z,11.10
2022-12-16T04:56:04.324Z,4.93
2022-12-16T05:02:23.811Z,4.67
2022-12-16T05:08:45.151Z,5.77
2022-12-16T05:15:06.240Z,5.50
2022-12-16T05:21:28.673Z,8.25
2022-12-16T05:27:50.694Z,6.40
2022-12-16T05:34:11.930Z,5.30
2022-12-16T05:40:34.580Z,5.50
2022-12-16T05:46:55.590Z,4.33
2022-12-16T05:53:16.686Z,8.83
2022-12-16T05:59:38.842Z,5.20
2022-12-16T06:06:00.002Z,4.70
2022-12-16T06:12:20.811Z,4.40
2022-12-16T06:18:43.430Z,7.90
2022-12-16T06:25:04.580Z,7.13
2022-12-16T06:31:21.926Z,9.57
2022-12-16T06:37:44.302Z,4.47
2022-12-16T06:44:05.425Z,7.00
2022-12-16T06:50:26.712Z,6.33
2022-12-16T06:56:49.424Z,7.70
2022-12-16T07:03:10.505Z,8.20
2022-12-16T07:09:31.705Z,8.53
2022-12-16T07:15:54.271Z,10.97
2022-12-16T07:22:30.118Z,6.30
2022-12-16T07:28:50.937Z,6.53
2022-12-16T07:35:13.626Z,8.60
2022-12-16T07:41:34.879Z,10.13
2022-12-16T07:47:55.772Z,68.47
2022-12-16T07:54:18.343Z,23.27
2022-12-16T08:00:39.520Z,16.10
2022-12-16T08:07:00.330Z,17.30
2022-12-16T08:13:32.229Z,26.57
2022-12-16T08:19:53.668Z,17.90
2022-12-16T08:26:15.694Z,16.30
2022-12-16T08:32:38.268Z,10.83
2022-12-16T08:39:07.799Z,11.30
2022-12-16T08:45:29.680Z,15.23
2022-12-16T08:51:52.419Z,10.33
2022-12-16T08:58:14.067Z,11.47
2022-12-16T09:04:37.829Z,10.87
2022-12-16T09:11:00.563Z,20.83
2022-12-16T09:17:21.653Z,20.37
2022-12-16T09:23:42.818Z,16.67
2022-12-16T09:30:05.660Z,21.90
2022-12-16T09:36:27.297Z,23.27
2022-12-16T09:42:55.545Z,16.38
2022-12-16T09:49:22.979Z,12.60
2022-12-16T09:55:46.193Z,12.73
2022-12-16T10:02:07.229Z,12.00
2022-12-16T10:08:41.370Z,10.03
2022-12-16T10:15:09.423Z,9.67
2022-12-16T10:21:34.597Z,9.30
2022-12-16T10:28:07.405Z,9.60
2022-12-16T10:34:27.605Z,10.02
2022-12-16T10:40:52.612Z,11.30
2022-12-16T10:47:16.658Z,9.57
2022-12-16T10:53:40.104Z,12.77
2022-12-16T11:00:01.428Z,11.48
2022-12-16T11:06:24.328Z,10.57
2022-12-16T11:12:46.860Z,15.00
2022-12-16T11:19:09.129Z,13.20
2022-12-16T11:25:39.042Z,14.48
2022-12-16T11:32:01.463Z,17.88
2022-12-16T11:38:23.643Z,20.73
2022-12-16T11:44:48.654Z,16.42
2022-12-16T11:51:11.811Z,18.05
2022-12-16T11:57:44.284Z,15.02
2022-12-16T12:04:08.722Z,15.00
2022-12-16T12:10:34.653Z,14.90
2022-12-16T12:17:01.848Z,17.70
2022-12-16T12:23:22.181Z,13.43
2022-12-16T12:29:49.800Z,11.52
2022-12-16T12:36:15.149Z,10.63
2022-12-16T12:42:48.930Z,9.98
2022-12-16T12:49:14.264Z,8.27
2022-12-16T12:55:37.970Z,6.68
2022-12-16T13:02:01.809Z,9.18
2022-12-16T13:08:42.085Z,8.23
2022-12-16T13:15:12.907Z,8.60
2022-12-16T13:21:53.363Z,7.75
2022-12-16T13:28:16.592Z,7.80
2022-12-16T13:34:42.338Z,7.18
2022-12-16T13:41:11.743Z,5.30
2022-12-16T13:47:48.776Z,5.70
2022-12-16T13:54:12.503Z,8.55
2022-12-16T14:00:37.243Z,8.98
2022-12-16T14:06:59.430Z,5.55
2022-12-16T14:13:24.144Z,5.40
2022-12-16T14:19:48.851Z,7.00
2022-12-16T14:26:16.024Z,5.78
2022-12-16T14:32:46.212Z,5.82
2022-12-16T14:39:07.797Z,9.32
2022-12-16T14:45:40.713Z,5.45
2022-12-16T14:52:06.629Z,6.15
2022-12-16T14:58:30.052Z,7.30
2022-12-16T15:04:51.556Z,7.63
2022-12-16T15:11:16.417Z,15.52
2022-12-16T15:17:41.560Z,9.23
2022-12-16T15:24:04.235Z,10.57
2022-12-16T15:30:39.283Z,8.90
2022-12-16T15:37:05.466Z,9.02
2022-12-16T15:43:39.451Z,6.18
2022-12-16T15:50:04.309Z,8.10
2022-12-16T15:56:36.360Z,9.90
2022-12-16T16:02:57.609Z,12.65
2022-12-16T16:09:19.391Z,11.65
2022-12-16T16:15:42.292Z,9.63
2022-12-16T16:22:03.823Z,9.30
2022-12-16T16:28:27.023Z,10.23
2022-12-16T16:34:49.331Z,12.07
2022-12-16T16:41:11.059Z,10.20
2022-12-16T16:47:35.605Z,9.13
2022-12-16T16:53:58.323Z,7.45
2022-12-16T17:00:19.660Z,10.20
2022-12-16T17:06:40.722Z,37.80
2022-12-16T17:13:04.882Z,35.03
2022-12-16T17:19:26.427Z,13.70
2022-12-16T17:25:47.612Z,13.13
2022-12-16T17:32:10.096Z,14.07
2022-12-16T17:38:31.671Z,10.73
2022-12-16T17:44:53.241Z,11.50
2022-12-16T17:51:15.907Z,13.17
2022-12-16T17:57:37.351Z,17.53
2022-12-16T18:03:58.953Z,14.80
2022-12-16T18:10:21.664Z,15.40
2022-12-16T18:16:42.811Z,16.10
2022-12-16T18:23:03.880Z,11.53
2022-12-16T18:29:26.380Z,12.90
2022-12-16T18:35:47.320Z,11.03
2022-12-16T18:42:08.716Z,13.20
2022-12-16T18:48:31.316Z,13.17
2022-12-16T18:54:52.253Z,17.27
2022-12-16T19:01:19.411Z,14.20
2022-12-16T19:07:42.233Z,16.20
2022-12-16T19:14:03.160Z,17.23
2022-12-16T19:20:28.609Z,16.00
2022-12-16T19:26:56.410Z,19.30
2022-12-16T19:33:17.922Z,17.27
2022-12-16T19:39:38.827Z,17.53
2022-12-16T19:46:01.449Z,19.97
2022-12-16T19:52:22.702Z,19.73
2022-12-16T19:58:44.071Z,21.83
2022-12-16T20:05:06.806Z,27.30
2022-12-16T20:11:28.176Z,23.97
2022-12-16T20:17:49.313Z,35.50
2022-12-16T20:24:12.036Z,32.70
2022-12-16T20:30:33.553Z,37.50
2022-12-16T20:37:05.946Z,29.20
2022-12-16T20:43:28.381Z,30.23
2022-12-16T20:49:49.678Z,27.53
2022-12-16T20:56:10.517Z,34.73
2022-12-16T21:02:34.165Z,29.77
2022-12-16T21:08:55.854Z,28.27
2022-12-16T21:15:17.028Z,23.73
2022-12-16T21:21:39.594Z,26.23
2022-12-16T21:28:00.833Z,21.30
2022-12-16T21:34:21.886Z,21.97
2022-12-16T21:40:44.190Z,29.17
2022-12-16T21:47:05.334Z,29.13
2022-12-16T21:53:26.663Z,30.80
2022-12-16T21:59:49.716Z,35.53
2022-12-16T22:06:11.002Z,39.27
2022-12-16T22:12:32.068Z,37.83
2022-12-16T22:18:54.449Z,41.77
2022-12-16T22:25:17.072Z,41.27
2022-12-16T22:31:38.122Z,45.23
2022-12-16T22:38:15.146Z,40.40
2022-12-16T22:44:41.829Z,50.17
2022-12-16T22:51:02.979Z,52.80
2022-12-16T22:57:25.236Z,53.67
2022-12-16T23:03:46.184Z,49.73
2022-12-16T23:10:07.645Z,42.63
2022-12-16T23:16:31.662Z,46.90
2022-12-16T23:22:52.788Z,47.53
2022-12-16T23:29:17.586Z,48.50
2022-12-16T23:35:39.963Z,48.07
2022-12-16T23:42:00.897Z,47.17
2022-12-16T23:48:22.980Z,50.63
2022-12-16T23:54:45.583Z,48.47
